createdAt,value
2024-01-24T00:00:18.554Z,25.093755
2024-01-24T00:05:24.804Z,25.454694
2024-01-24T00:10:24.852Z,24.998433
2024-01-24T00:15:55.729Z,24.998433
2024-01-24T00:20:24.794Z,25.619595
2024-01-24T00:25:18.501Z,25.779244
2024-01-24T00:30:18.645Z,25.236992
2024-01-24T00:35:16.624Z,24.881764
2024-01-24T00:40:16.741Z,24.881764
2024-01-24T00:45:19.889Z,25.236992
2024-01-24T00:50:18.616Z,25.045685
2024-01-24T00:55:18.681Z,24.690779
2024-01-24T01:00:24.932Z,25.045685
2024-01-24T01:05:24.914Z,24.950030
2024-01-24T01:10:24.869Z,24.950030
2024-01-24T01:15:24.899Z,24.854374
2024-01-24T01:20:25.093Z,24.950030
2024-01-24T01:25:24.925Z,25.204367
2024-01-24T01:30:16.884Z,25.012733
2024-01-24T01:35:16.765Z,24.821096
2024-01-24T01:40:18.763Z,24.878060
2024-01-24T01:45:18.826Z,24.782080
2024-01-24T01:50:24.962Z,24.590118
2024-01-24T01:55:18.906Z,24.929746
2024-01-24T02:00:25.029Z,24.494135
2024-01-24T02:05:18.850Z,24.737469
2024-01-24T02:10:18.796Z,25.403589
2024-01-24T02:15:18.750Z,25.956989
2024-01-24T02:20:18.846Z,26.082394
2024-01-24T02:25:16.957Z,25.666758
2024-01-24T02:30:16.955Z,25.666758
2024-01-24T02:35:25.158Z,25.344225
2024-01-24T02:40:18.825Z,25.344225
2024-01-24T02:45:18.843Z,25.985503
2024-01-24T02:50:25.141Z,25.888612
2024-01-24T02:55:25.142Z,26.514824
2024-01-24T03:00:25.357Z,26.106482
2024-01-24T03:05:25.069Z,26.106482
2024-01-24T03:10:18.897Z,26.417644
2024-01-24T03:15:16.983Z,26.417644
2024-01-24T03:20:16.943Z,26.320463
2024-01-24T03:25:25.323Z,26.627970
2024-01-24T03:30:25.287Z,26.320463
2024-01-24T03:35:25.261Z,26.530647
2024-01-24T03:40:18.984Z,26.433324
2024-01-24T03:45:25.202Z,26.737122
2024-01-24T03:50:19.047Z,26.939973
2024-01-24T03:55:18.915Z,27.041541
2024-01-24T04:00:19.133Z,27.041495
2024-01-24T04:05:25.258Z,27.331563
2024-01-24T04:10:17.432Z,27.324151
2024-01-24T04:15:17.114Z,27.509530
2024-01-24T04:20:19.117Z,27.312970
2024-01-24T04:25:19.115Z,27.396511
2024-01-24T04:30:25.414Z,27.673775
2024-01-24T04:35:19.083Z,27.575235
2024-01-24T04:40:25.599Z,27.750928
2024-01-24T04:45:19.213Z,27.750928
2024-01-24T04:50:19.333Z,27.750928
2024-01-24T04:55:25.377Z,27.923652
2024-01-24T05:00:18.431Z,27.923652
2024-01-24T05:05:18.535Z,27.824857
2024-01-24T05:10:24.694Z,27.824857
2024-01-24T05:15:18.688Z,27.824857
2024-01-24T05:20:16.540Z,27.824857
2024-01-24T05:25:16.436Z,28.093467
2024-01-24T05:30:34.746Z,28.093467
2024-01-24T05:35:18.479Z,27.994546
2024-01-24T05:40:24.751Z,27.994546
2024-01-24T05:45:24.914Z,28.093467
2024-01-24T05:50:18.527Z,28.093467
2024-01-24T05:55:24.781Z,27.994546
2024-01-24T06:00:24.931Z,27.994546
2024-01-24T06:05:24.771Z,27.994546
2024-01-24T06:10:24.693Z,28.260432
2024-01-24T06:15:16.592Z,28.161387
2024-01-24T06:20:24.890Z,28.260432
2024-01-24T06:25:24.837Z,28.260432
2024-01-24T06:30:26.749Z,28.260432
2024-01-24T06:35:18.753Z,28.260432
2024-01-24T06:40:24.897Z,28.260432
2024-01-24T06:45:24.849Z,28.260432
2024-01-24T06:50:18.696Z,28.260432
2024-01-24T06:55:24.854Z,28.260432
2024-01-24T07:00:24.915Z,28.260432
2024-01-24T07:05:16.720Z,28.161387
2024-01-24T07:10:16.751Z,28.161387
2024-01-24T07:15:19.026Z,28.260432
2024-01-24T07:20:25.029Z,28.161387
2024-01-24T07:25:25.016Z,28.260432
2024-01-24T07:30:18.744Z,28.161387
2024-01-24T07:35:19.093Z,28.161387
2024-01-24T07:40:18.708Z,28.062342
2024-01-24T07:45:19.025Z,28.161387
2024-01-24T07:50:18.796Z,28.161387
2024-01-24T07:55:32.186Z,28.161387
2024-01-24T08:00:16.911Z,28.161387
2024-01-24T08:05:17.031Z,28.161387
2024-01-24T08:10:18.730Z,28.062342
2024-01-24T08:15:25.245Z,28.161387
2024-01-24T08:20:25.083Z,28.161387
2024-01-24T08:25:25.065Z,28.062342
2024-01-24T08:30:18.956Z,28.062342
2024-01-24T08:35:18.908Z,27.963296
2024-01-24T08:40:19.015Z,27.864250
2024-01-24T08:45:18.955Z,27.765204
2024-01-24T08:50:19.043Z,27.666158
2024-01-24T08:55:16.984Z,27.765204
2024-01-24T09:00:25.204Z,27.666158
2024-01-24T09:05:25.306Z,27.666158
2024-01-24T09:10:25.200Z,27.666158
2024-01-24T09:15:19.100Z,27.567111
2024-01-24T09:20:19.153Z,27.666158
2024-01-24T09:25:25.208Z,27.666158
2024-01-24T09:30:25.262Z,27.567111
2024-01-24T09:35:25.338Z,27.567111
2024-01-24T09:40:19.599Z,27.567111
2024-01-24T09:45:17.095Z,27.567111
2024-01-24T09:50:17.050Z,27.567111
2024-01-24T09:56:02.508Z,27.567111
2024-01-24T10:00:25.319Z,27.567111
2024-01-24T10:05:25.257Z,27.567111
2024-01-24T10:10:25.321Z,27.468064
2024-01-24T10:15:25.248Z,27.468064
2024-01-24T10:20:19.070Z,27.567111
2024-01-24T10:25:25.464Z,27.567111
2024-01-24T10:30:25.425Z,27.567111
2024-01-24T10:35:25.420Z,27.567111
2024-01-24T10:40:17.742Z,27.666158
2024-01-24T10:45:17.245Z,27.666158
2024-01-24T10:50:19.181Z,27.666158
2024-01-24T10:55:19.127Z,27.666158
2024-01-24T11:00:19.183Z,27.666158
2024-01-24T11:05:25.497Z,28.027929
2024-01-24T11:10:19.281Z,28.027929
2024-01-24T11:15:19.376Z,28.027929
2024-01-24T11:20:25.470Z,28.127098
2024-01-24T11:25:19.304Z,28.127098
2024-01-24T11:30:25.530Z,28.127098
2024-01-24T11:35:17.350Z,28.127098
2024-01-24T11:40:17.543Z,28.127098
2024-01-24T11:45:19.365Z,28.226267
2024-01-24T11:50:25.497Z,28.127098
2024-01-24T11:55:25.544Z,28.226267
2024-01-24T12:00:19.357Z,28.226267
2024-01-24T12:05:19.278Z,28.226267
2024-01-24T12:10:25.647Z,28.325435
2024-01-24T12:15:25.516Z,28.325435
2024-01-24T12:20:26.001Z,28.424604
2024-01-24T12:25:19.377Z,28.523772
2024-01-24T12:30:17.425Z,28.622940
2024-01-24T12:35:19.685Z,28.722108
2024-01-24T12:40:19.293Z,28.821276
2024-01-24T12:45:25.737Z,29.019610
2024-01-24T12:50:25.723Z,28.920443
2024-01-24T12:55:19.326Z,29.019610
2024-01-24T13:00:25.729Z,29.019610
2024-01-24T13:05:23.281Z,29.019610
2024-01-24T13:10:25.785Z,29.019610
2024-01-24T13:15:19.437Z,29.118777
2024-01-24T13:20:17.588Z,29.019610
2024-01-24T13:25:17.786Z,29.118777
2024-01-24T13:30:23.826Z,29.118777
2024-01-24T13:35:23.742Z,29.217944
2024-01-24T13:40:23.710Z,29.217944
2024-01-24T13:45:23.882Z,29.217944
2024-01-24T13:50:23.741Z,29.317111
2024-01-24T13:55:23.773Z,29.416277
2024-01-24T14:00:16.177Z,29.416277
2024-01-24T14:05:15.681Z,29.515444
2024-01-24T14:10:23.807Z,29.515444
2024-01-24T14:15:24.688Z,29.515444
2024-01-24T14:20:17.625Z,29.515444
2024-01-24T14:25:23.890Z,29.515444
2024-01-24T14:30:17.604Z,29.614610
2024-01-24T14:35:17.828Z,29.976086
2024-01-24T14:40:17.653Z,29.614610
2024-01-24T14:45:17.636Z,29.614610
2024-01-24T14:50:23.896Z,29.976086
2024-01-24T14:55:15.822Z,30.075374
2024-01-24T15:00:17.770Z,30.075374
2024-01-24T15:05:17.755Z,29.812941
2024-01-24T15:10:24.035Z,29.812941
2024-01-24T15:15:24.985Z,29.912107
2024-01-24T15:20:18.849Z,29.912107
2024-01-24T15:25:18.763Z,30.373237
2024-01-24T15:30:16.805Z,30.209602
2024-01-24T15:35:25.074Z,30.011272
2024-01-24T15:40:25.047Z,29.912107
2024-01-24T15:45:18.742Z,29.912107
2024-01-24T15:50:24.966Z,29.912107
2024-01-24T15:55:25.042Z,30.011272
2024-01-24T16:00:24.996Z,30.373237
2024-01-24T16:05:25.193Z,30.571812
2024-01-24T16:10:25.093Z,30.671099
2024-01-24T16:15:18.775Z,30.869673
2024-01-24T16:20:16.994Z,31.167532
2024-01-24T16:25:16.915Z,31.266818
2024-01-24T16:30:25.197Z,31.366103
2024-01-24T16:35:25.238Z,31.465389
2024-01-24T16:40:18.849Z,31.564675
2024-01-24T16:45:25.193Z,31.763245
2024-01-24T16:50:18.951Z,31.763245
2024-01-24T16:55:19.032Z,31.862530
2024-01-24T17:00:18.905Z,31.763245
2024-01-24T17:05:25.193Z,31.862530
2024-01-24T17:10:25.186Z,31.763245
2024-01-24T17:15:17.025Z,31.862530
2024-01-24T17:20:17.009Z,31.862530
2024-01-24T17:25:25.276Z,31.597891
2024-01-24T17:30:25.242Z,31.597891
2024-01-24T17:35:25.308Z,31.597891
2024-01-24T17:40:25.239Z,31.597891
2024-01-24T17:45:19.005Z,31.862530
2024-01-24T17:50:18.980Z,31.862530
2024-01-24T17:55:25.343Z,31.961815
2024-01-24T18:00:25.397Z,31.961815
2024-01-24T18:05:19.149Z,31.961815
2024-01-24T18:10:17.179Z,32.061100
2024-01-24T18:15:17.284Z,32.061100
2024-01-24T18:20:25.302Z,32.061100
2024-01-24T18:25:25.326Z,32.160384
2024-01-24T18:30:19.102Z,32.259669
2024-01-24T18:35:19.119Z,32.259669
2024-01-24T18:40:19.148Z,32.259669
2024-01-24T18:45:25.551Z,32.259669
2024-01-24T18:50:25.432Z,32.259669
2024-01-24T18:55:25.328Z,32.160384
2024-01-24T19:00:17.334Z,32.259669
2024-01-24T19:05:23.618Z,32.259669
2024-01-24T19:10:19.269Z,32.160384
2024-01-24T19:15:25.563Z,32.160384
2024-01-24T19:20:19.373Z,32.259669
2024-01-24T19:25:19.276Z,32.259669
2024-01-24T19:30:25.549Z,32.259669
2024-01-24T19:35:19.271Z,32.259669
2024-01-24T19:40:25.592Z,32.259669
2024-01-24T19:45:25.525Z,32.259669
2024-01-24T19:50:25.480Z,32.160384
2024-01-24T19:55:17.409Z,32.160384
2024-01-24T20:00:17.424Z,32.061100
2024-01-24T20:05:19.404Z,32.061100
2024-01-24T20:10:25.566Z,32.061100
2024-01-24T20:15:19.308Z,32.061100
2024-01-24T20:20:25.613Z,31.961815
2024-01-24T20:25:25.601Z,32.061100
2024-01-24T20:30:25.625Z,31.961815
2024-01-24T20:35:25.810Z,31.961815
2024-01-24T20:40:25.723Z,31.961815
2024-01-24T20:45:25.765Z,31.961815
2024-01-24T20:50:17.773Z,31.862530
2024-01-24T20:55:25.771Z,31.862530
2024-01-24T21:00:25.902Z,31.763245
2024-01-24T21:05:19.453Z,31.862530
2024-01-24T21:10:25.788Z,31.763245
2024-01-24T21:15:26.083Z,31.862530
2024-01-24T21:20:23.820Z,31.862530
2024-01-24T21:25:15.717Z,31.763245
2024-01-24T21:30:15.521Z,31.663960
2024-01-24T21:35:23.693Z,31.663960
2024-01-24T21:40:23.744Z,31.663960
2024-01-24T21:45:23.804Z,31.663960
2024-01-24T21:50:23.742Z,31.564675
2024-01-24T21:55:23.856Z,31.663960
2024-01-24T22:00:23.784Z,31.663960
2024-01-24T22:05:23.805Z,31.663960
2024-01-24T22:10:17.616Z,31.564675
2024-01-24T22:15:17.571Z,31.564675
2024-01-24T22:20:15.692Z,31.564675
2024-01-24T22:25:15.736Z,31.564675
2024-01-24T22:30:17.727Z,31.465389
2024-01-24T22:35:17.837Z,31.465389
2024-01-24T22:40:24.113Z,31.465389
2024-01-24T22:45:23.926Z,31.465389
2024-01-24T22:50:20.762Z,31.564675
2024-01-24T22:55:17.816Z,31.366103
2024-01-24T23:00:23.987Z,31.366103
2024-01-24T23:05:24.016Z,31.266818
2024-01-24T23:10:17.932Z,31.366103
2024-01-24T23:15:15.858Z,31.366103
2024-01-24T23:20:17.896Z,31.366103
2024-01-24T23:25:17.767Z,31.266818
2024-01-24T23:30:17.778Z,31.167532
2024-01-24T23:35:18.166Z,31.266818
2024-01-24T23:40:24.103Z,31.167532
2024-01-24T23:45:17.820Z,31.167532
2024-01-24T23:50:24.507Z,31.266818
2024-01-24T23:55:24.055Z,31.266818
